createdAt,value
2022-12-09T00:00:45.772Z,0.43
2022-12-09T00:10:57.601Z,0.02
2022-12-09T00:21:12.857Z,-0.21
2022-12-09T00:31:24.683Z,-0.27
2022-12-09T00:41:33.084Z,-0.27
2022-12-09T00:51:40.140Z,-0.17
2022-12-09T01:01:47.405Z,-0.17
2022-12-09T01:11:52.271Z,-0.22
2022-12-09T01:21:59.363Z,-0.37
2022-12-09T01:32:05.082Z,-0.51
2022-12-09T01:42:20.510Z,-0.53
2022-12-09T01:52:27.978Z,-0.40
2022-12-09T02:02:38.519Z,-0.23
2022-12-09T02:12:49.697Z,-0.04
2022-12-09T02:23:00.947Z,0.12
2022-12-09T02:33:10.921Z,0.17
2022-12-09T02:43:19.634Z,0.11
2022-12-09T02:53:28.341Z,0.05
2022-12-09T03:03:37.396Z,0.06
2022-12-09T03:13:45.139Z,0.14
2022-12-09T03:23:56.332Z,0.18
2022-12-09T03:34:08.541Z,0.27
2022-12-09T03:44:18.091Z,0.33
2022-12-09T03:54:25.525Z,0.25
2022-12-09T04:04:33.166Z,0.31
2022-12-09T04:14:40.386Z,0.46
2022-12-09T04:24:47.588Z,0.58
2022-12-09T04:34:54.925Z,0.67
2022-12-09T04:45:02.324Z,0.69
2022-12-09T04:55:10.051Z,0.62
2022-12-09T05:05:16.020Z,0.46
2022-12-09T05:15:23.732Z,0.41
2022-12-09T05:25:31.805Z,0.42
2022-12-09T05:35:49.175Z,0.44
2022-12-09T05:45:59.511Z,0.19
2022-12-09T05:56:06.013Z,-0.16
2022-12-09T06:06:16.347Z,-0.58
2022-12-09T06:16:25.045Z,-0.80
2022-12-09T06:26:31.964Z,-0.89
2022-12-09T06:36:39.333Z,-0.94
2022-12-09T06:46:47.134Z,-0.87
2022-12-09T06:56:53.986Z,-0.92
2022-12-09T07:07:04.304Z,-1.02
2022-12-09T07:17:18.559Z,-1.04
2022-12-09T07:27:25.815Z,-0.79
2022-12-09T07:37:46.954Z,-0.43
2022-12-09T07:47:54.512Z,0.02
2022-12-09T07:58:02.269Z,0.86
2022-12-09T08:08:10.103Z,1.16
2022-12-09T08:18:18.097Z,2.37
2022-12-09T08:28:26.915Z,3.84
2022-12-09T08:38:35.736Z,4.52
2022-12-09T08:48:44.744Z,4.96
2022-12-09T08:58:52.540Z,4.88
2022-12-09T09:19:06.847Z,4.34
2022-12-09T09:29:16.083Z,4.01
2022-12-09T09:39:23.980Z,3.60
2022-12-09T09:49:31.164Z,3.34
2022-12-09T09:59:45.619Z,3.22
2022-12-09T10:20:05.965Z,3.22
2022-12-09T10:30:17.300Z,3.19
2022-12-09T10:40:25.166Z,3.18
2022-12-09T10:50:30.799Z,3.02
2022-12-09T11:00:39.667Z,3.08
2022-12-09T11:10:50.280Z,3.17
2022-12-09T11:20:56.294Z,3.34
2022-12-09T11:41:52.263Z,3.26
2022-12-09T11:52:04.496Z,3.25
2022-12-09T12:02:22.777Z,3.22
2022-12-09T12:12:29.752Z,3.27
2022-12-09T12:22:42.624Z,3.43
2022-12-09T12:33:53.052Z,3.33
2022-12-09T12:43:55.261Z,3.21
2022-12-09T12:54:01.742Z,3.03
2022-12-09T13:04:12.245Z,2.92
2022-12-09T13:14:21.685Z,2.87
2022-12-09T13:24:26.688Z,2.85
2022-12-09T13:34:32.960Z,2.82
2022-12-09T13:44:40.825Z,2.65
2022-12-09T13:54:47.431Z,2.47
2022-12-09T14:04:55.811Z,2.36
2022-12-09T14:15:06.659Z,2.31
2022-12-09T14:25:51.439Z,2.15
2022-12-09T14:35:57.157Z,1.91
2022-12-09T14:46:03.668Z,1.73
2022-12-09T14:56:10.536Z,1.67
2022-12-09T15:06:20.828Z,1.71
2022-12-09T15:16:27.007Z,1.66
2022-12-09T15:26:35.795Z,1.58
2022-12-09T15:36:47.131Z,1.56
2022-12-09T15:46:57.181Z,1.63
2022-12-09T15:57:07.307Z,1.70
2022-12-09T16:07:19.812Z,1.67
2022-12-09T16:17:30.524Z,1.66
2022-12-09T16:27:44.464Z,1.71
2022-12-09T16:38:22.554Z,1.72
2022-12-09T16:48:31.665Z,1.67
2022-12-09T16:58:38.810Z,1.66
2022-12-09T17:08:46.743Z,1.70
2022-12-09T17:18:54.205Z,1.71
2022-12-09T17:29:02.217Z,1.55
2022-12-09T17:39:12.742Z,1.45
2022-12-09T17:49:20.550Z,1.33
2022-12-09T17:59:27.797Z,1.13
2022-12-09T18:09:35.086Z,0.95
2022-12-09T18:19:41.140Z,0.84
2022-12-09T18:49:59.805Z,0.65
2022-12-09T19:00:10.778Z,0.65
2022-12-09T19:10:18.661Z,0.66
2022-12-09T19:20:28.088Z,0.62
2022-12-09T19:30:35.031Z,0.56
2022-12-09T19:40:45.636Z,0.57
2022-12-09T19:50:51.824Z,0.54
2022-12-09T20:00:59.319Z,0.56
2022-12-09T20:11:06.924Z,0.53
2022-12-09T20:21:15.708Z,0.50
2022-12-09T20:31:27.727Z,0.52
2022-12-09T20:51:44.175Z,0.57
2022-12-09T21:01:54.451Z,0.56
2022-12-09T21:12:00.967Z,0.47
2022-12-09T21:22:09.387Z,0.49
2022-12-09T21:32:19.259Z,0.51
2022-12-09T21:42:25.267Z,0.51
2022-12-09T21:52:34.880Z,0.51
2022-12-09T22:02:41.539Z,0.47
2022-12-09T22:12:49.065Z,0.41
2022-12-09T22:22:56.225Z,0.41
2022-12-09T22:33:03.637Z,0.46
2022-12-09T22:43:11.048Z,0.44
2022-12-09T22:53:18.684Z,0.36
2022-12-09T23:03:26.345Z,0.36
2022-12-09T23:13:39.150Z,0.41
2022-12-09T23:23:48.700Z,0.41
2022-12-09T23:33:57.152Z,0.40
2022-12-09T23:44:04.883Z,0.45
2022-12-09T23:54:14.930Z,0.45
